sensor_id;sensor_type;location;lat;lon;timestamp;P1;durP1;ratioP1;P2;durP2;ratioP2
9807;SDS011;4943;52.550;13.462;2023-06-26T00:01:23;540.23;;;493.70;;
9807;SDS011;4943;52.550;13.462;2023-06-26T00:03:51;535.43;;;489.00;;
9807;SDS011;4943;52.550;13.462;2023-06-26T00:06:21;542.97;;;496.00;;
9807;SDS011;4943;52.550;13.462;2023-06-26T00:08:50;531.10;;;484.33;;
9807;SDS011;4943;52.550;13.462;2023-06-26T00:11:19;542.17;;;495.27;;
9807;SDS011;4943;52.550;13.462;2023-06-26T00:13:47;529.50;;;483.27;;
9807;SDS011;4943;52.550;13.462;2023-06-26T00:16:15;507.93;;;462.43;;
9807;SDS011;4943;52.550;13.462;2023-06-26T00:18:43;569.33;;;521.37;;
9807;SDS011;4943;52.550;13.462;2023-06-26T00:21:12;514.47;;;468.47;;
9807;SDS011;4943;52.550;13.462;2023-06-26T00:23:42;533.43;;;487.13;;
9807;SDS011;4943;52.550;13.462;2023-06-26T00:26:10;536.67;;;489.87;;
9807;SDS011;4943;52.550;13.462;2023-06-26T00:28:38;529.87;;;483.97;;
9807;SDS011;4943;52.550;13.462;2023-06-26T00:31:06;514.73;;;469.13;;
9807;SDS011;4943;52.550;13.462;2023-06-26T00:33:34;531.07;;;484.77;;
9807;SDS011;4943;52.550;13.462;2023-06-26T00:36:03;517.33;;;471.50;;
9807;SDS011;4943;52.550;13.462;2023-06-26T00:38:31;522.53;;;476.70;;
9807;SDS011;4943;52.550;13.462;2023-06-26T00:41:00;521.77;;;475.47;;
9807;SDS011;4943;52.550;13.462;2023-06-26T00:43:28;575.43;;;527.03;;
9807;SDS011;4943;52.550;13.462;2023-06-26T00:45:56;608.60;;;559.43;;
9807;SDS011;4943;52.550;13.462;2023-06-26T00:48:25;513.13;;;467.23;;
9807;SDS011;4943;52.550;13.462;2023-06-26T00:50:53;550.33;;;503.30;;
9807;SDS011;4943;52.550;13.462;2023-06-26T00:53:21;537.07;;;490.57;;
9807;SDS011;4943;52.550;13.462;2023-06-26T00:55:49;510.23;;;464.83;;
9807;SDS011;4943;52.550;13.462;2023-06-26T00:58:19;521.93;;;476.00;;
9807;SDS011;4943;52.550;13.462;2023-06-26T01:00:48;555.80;;;508.20;;
9807;SDS011;4943;52.550;13.462;2023-06-26T01:03:17;565.37;;;517.57;;
9807;SDS011;4943;52.550;13.462;2023-06-26T01:05:45;553.40;;;505.97;;
9807;SDS011;4943;52.550;13.462;2023-06-26T01:08:15;568.77;;;520.90;;
9807;SDS011;4943;52.550;13.462;2023-06-26T01:10:45;521.80;;;475.97;;
9807;SDS011;4943;52.550;13.462;2023-06-26T01:13:13;551.80;;;504.77;;
9807;SDS011;4943;52.550;13.462;2023-06-26T01:15:43;540.77;;;494.00;;
9807;SDS011;4943;52.550;13.462;2023-06-26T01:18:12;531.17;;;484.97;;
9807;SDS011;4943;52.550;13.462;2023-06-26T01:20:41;504.47;;;459.23;;
9807;SDS011;4943;52.550;13.462;2023-06-26T01:23:12;513.07;;;467.20;;
9807;SDS011;4943;52.550;13.462;2023-06-26T01:25:52;541.67;;;494.43;;
9807;SDS011;4943;52.550;13.462;2023-06-26T01:28:29;512.43;;;466.60;;
9807;SDS011;4943;52.550;13.462;2023-06-26T01:30:59;525.73;;;479.73;;
9807;SDS011;4943;52.550;13.462;2023-06-26T01:33:27;539.70;;;493.00;;
9807;SDS011;4943;52.550;13.462;2023-06-26T01:35:56;513.87;;;468.17;;
9807;SDS011;4943;52.550;13.462;2023-06-26T01:38:24;522.70;;;476.43;;
9807;SDS011;4943;52.550;13.462;2023-06-26T01:40:52;525.83;;;479.90;;
9807;SDS011;4943;52.550;13.462;2023-06-26T01:43:22;515.87;;;470.17;;
9807;SDS011;4943;52.550;13.462;2023-06-26T01:45:57;507.33;;;461.93;;
9807;SDS011;4943;52.550;13.462;2023-06-26T01:48:30;485.93;;;441.23;;
9807;SDS011;4943;52.550;13.462;2023-06-26T01:51:02;498.33;;;453.13;;
9807;SDS011;4943;52.550;13.462;2023-06-26T01:53:32;498.30;;;453.20;;
9807;SDS011;4943;52.550;13.462;2023-06-26T01:56:06;496.53;;;450.97;;
9807;SDS011;4943;52.550;13.462;2023-06-26T01:58:39;486.03;;;441.50;;
9807;SDS011;4943;52.550;13.462;2023-06-26T02:01:12;482.33;;;437.80;;
9807;SDS011;4943;52.550;13.462;2023-06-26T02:03:40;478.23;;;433.80;;
9807;SDS011;4943;52.550;13.462;2023-06-26T02:06:08;497.50;;;452.40;;
9807;SDS011;4943;52.550;13.462;2023-06-26T02:08:36;484.23;;;439.50;;
9807;SDS011;4943;52.550;13.462;2023-06-26T02:11:04;474.87;;;430.30;;
9807;SDS011;4943;52.550;13.462;2023-06-26T02:13:32;476.07;;;431.60;;
9807;SDS011;4943;52.550;13.462;2023-06-26T02:16:00;491.97;;;447.17;;
9807;SDS011;4943;52.550;13.462;2023-06-26T02:18:30;507.93;;;462.50;;
9807;SDS011;4943;52.550;13.462;2023-06-26T02:20:58;464.90;;;420.53;;
9807;SDS011;4943;52.550;13.462;2023-06-26T02:23:26;474.67;;;430.40;;
9807;SDS011;4943;52.550;13.462;2023-06-26T02:25:54;513.73;;;468.13;;
9807;SDS011;4943;52.550;13.462;2023-06-26T02:28:22;519.20;;;473.00;;
9807;SDS011;4943;52.550;13.462;2023-06-26T02:30:50;527.87;;;481.33;;
9807;SDS011;4943;52.550;13.462;2023-06-26T02:33:18;559.93;;;511.73;;
9807;SDS011;4943;52.550;13.462;2023-06-26T02:35:48;533.30;;;486.67;;
9807;SDS011;4943;52.550;13.462;2023-06-26T02:38:17;548.57;;;501.10;;
9807;SDS011;4943;52.550;13.462;2023-06-26T02:40:45;552.53;;;505.03;;
9807;SDS011;4943;52.550;13.462;2023-06-26T02:43:13;549.27;;;501.80;;
9807;SDS011;4943;52.550;13.462;2023-06-26T02:45:41;537.17;;;490.30;;
9807;SDS011;4943;52.550;13.462;2023-06-26T02:48:09;537.23;;;490.40;;
9807;SDS011;4943;52.550;13.462;2023-06-26T02:50:37;516.53;;;470.53;;
9807;SDS011;4943;52.550;13.462;2023-06-26T02:53:07;499.30;;;453.83;;
9807;SDS011;4943;52.550;13.462;2023-06-26T02:55:35;507.33;;;461.37;;
9807;SDS011;4943;52.550;13.462;2023-06-26T02:58:03;536.33;;;489.17;;
9807;SDS011;4943;52.550;13.462;2023-06-26T03:00:31;504.50;;;458.77;;
9807;SDS011;4943;52.550;13.462;2023-06-26T03:02:59;493.50;;;447.77;;
9807;SDS011;4943;52.550;13.462;2023-06-26T03:05:27;502.03;;;456.13;;
9807;SDS011;4943;52.550;13.462;2023-06-26T03:07:55;489.13;;;444.17;;
9807;SDS011;4943;52.550;13.462;2023-06-26T03:10:25;481.17;;;436.37;;
9807;SDS011;4943;52.550;13.462;2023-06-26T03:12:53;468.47;;;423.80;;
9807;SDS011;4943;52.550;13.462;2023-06-26T03:15:21;484.17;;;439.47;;
9807;SDS011;4943;52.550;13.462;2023-06-26T03:17:49;466.53;;;421.93;;
9807;SDS011;4943;52.550;13.462;2023-06-26T03:20:17;475.13;;;430.47;;
9807;SDS011;4943;52.550;13.462;2023-06-26T03:22:45;462.93;;;418.40;;
9807;SDS011;4943;52.550;13.462;2023-06-26T03:25:13;467.80;;;422.90;;
9807;SDS011;4943;52.550;13.462;2023-06-26T03:27:43;469.37;;;424.87;;
9807;SDS011;4943;52.550;13.462;2023-06-26T03:30:11;473.40;;;428.90;;
9807;SDS011;4943;52.550;13.462;2023-06-26T03:32:39;472.37;;;427.37;;
9807;SDS011;4943;52.550;13.462;2023-06-26T03:35:07;481.43;;;436.33;;
9807;SDS011;4943;52.550;13.462;2023-06-26T03:37:35;477.37;;;432.57;;
9807;SDS011;4943;52.550;13.462;2023-06-26T03:40:04;457.50;;;413.47;;
9807;SDS011;4943;52.550;13.462;2023-06-26T03:42:32;490.53;;;444.90;;
9807;SDS011;4943;52.550;13.462;2023-06-26T03:45:02;472.90;;;428.20;;
9807;SDS011;4943;52.550;13.462;2023-06-26T03:47:30;513.03;;;466.83;;
9807;SDS011;4943;52.550;13.462;2023-06-26T03:49:58;476.00;;;431.33;;
9807;SDS011;4943;52.550;13.462;2023-06-26T03:52:26;470.23;;;425.57;;
9807;SDS011;4943;52.550;13.462;2023-06-26T03:54:57;473.93;;;429.47;;
9807;SDS011;4943;52.550;13.462;2023-06-26T03:57:25;475.13;;;430.40;;
9807;SDS011;4943;52.550;13.462;2023-06-26T03:59:53;478.03;;;433.53;;
9807;SDS011;4943;52.550;13.462;2023-06-26T04:02:22;473.47;;;429.07;;
9807;SDS011;4943;52.550;13.462;2023-06-26T04:04:50;517.70;;;471.60;;
9807;SDS011;4943;52.550;13.462;2023-06-26T04:07:19;501.40;;;456.00;;
9807;SDS011;4943;52.550;13.462;2023-06-26T04:09:47;502.83;;;457.17;;
9807;SDS011;4943;52.550;13.462;2023-06-26T04:12:15;510.93;;;465.17;;
9807;SDS011;4943;52.550;13.462;2023-06-26T04:14:43;544.07;;;497.37;;
9807;SDS011;4943;52.550;13.462;2023-06-26T04:17:11;542.53;;;495.90;;
9807;SDS011;4943;52.550;13.462;2023-06-26T04:19:40;550.67;;;503.80;;
9807;SDS011;4943;52.550;13.462;2023-06-26T04:22:08;564.50;;;517.37;;
9807;SDS011;4943;52.550;13.462;2023-06-26T04:24:36;583.50;;;535.87;;
9807;SDS011;4943;52.550;13.462;2023-06-26T04:27:05;600.40;;;552.08;;
9807;SDS011;4943;52.550;13.462;2023-06-26T04:29:33;579.50;;;531.77;;
9807;SDS011;4943;52.550;13.462;2023-06-26T04:32:01;582.53;;;534.93;;
9807;SDS011;4943;52.550;13.462;2023-06-26T04:34:29;550.83;;;504.37;;
9807;SDS011;4943;52.550;13.462;2023-06-26T04:37:00;586.57;;;538.87;;
9807;SDS011;4943;52.550;13.462;2023-06-26T04:39:30;601.97;;;553.63;;
9807;SDS011;4943;52.550;13.462;2023-06-26T04:41:59;582.07;;;534.60;;
9807;SDS011;4943;52.550;13.462;2023-06-26T04:44:27;581.97;;;534.50;;
9807;SDS011;4943;52.550;13.462;2023-06-26T04:46:55;587.70;;;539.87;;
9807;SDS011;4943;52.550;13.462;2023-06-26T04:49:23;581.17;;;533.70;;
9807;SDS011;4943;52.550;13.462;2023-06-26T04:51:51;572.13;;;524.97;;
9807;SDS011;4943;52.550;13.462;2023-06-26T04:54:20;582.80;;;534.87;;
9807;SDS011;4943;52.550;13.462;2023-06-26T04:56:49;586.33;;;538.40;;
9807;SDS011;4943;52.550;13.462;2023-06-26T04:59:17;576.07;;;528.83;;
9807;SDS011;4943;52.550;13.462;2023-06-26T05:01:45;584.30;;;536.83;;
9807;SDS011;4943;52.550;13.462;2023-06-26T05:04:14;587.17;;;539.67;;
9807;SDS011;4943;52.550;13.462;2023-06-26T05:06:44;582.73;;;535.27;;
9807;SDS011;4943;52.550;13.462;2023-06-26T05:09:12;584.57;;;537.10;;
9807;SDS011;4943;52.550;13.462;2023-06-26T05:11:41;585.20;;;537.80;;
9807;SDS011;4943;52.550;13.462;2023-06-26T05:14:09;636.67;;;587.42;;
9807;SDS011;4943;52.550;13.462;2023-06-26T05:16:38;603.90;;;556.05;;
9807;SDS011;4943;52.550;13.462;2023-06-26T05:19:06;605.45;;;557.58;;
9807;SDS011;4943;52.550;13.462;2023-06-26T05:21:34;602.40;;;554.37;;
9807;SDS011;4943;52.550;13.462;2023-06-26T05:24:03;628.00;;;579.53;;
9807;SDS011;4943;52.550;13.462;2023-06-26T05:26:32;641.17;;;592.00;;
9807;SDS011;4943;52.550;13.462;2023-06-26T05:29:02;666.75;;;616.70;;
9807;SDS011;4943;52.550;13.462;2023-06-26T05:31:31;663.20;;;613.03;;
9807;SDS011;4943;52.550;13.462;2023-06-26T05:34:02;682.55;;;632.05;;
9807;SDS011;4943;52.550;13.462;2023-06-26T05:36:31;692.92;;;641.60;;
9807;SDS011;4943;52.550;13.462;2023-06-26T05:39:01;696.05;;;645.20;;
9807;SDS011;4943;52.550;13.462;2023-06-26T05:41:30;694.67;;;643.63;;
9807;SDS011;4943;52.550;13.462;2023-06-26T05:43:58;683.83;;;633.55;;
9807;SDS011;4943;52.550;13.462;2023-06-26T05:46:27;685.38;;;635.05;;
9807;SDS011;4943;52.550;13.462;2023-06-26T05:48:55;697.28;;;646.83;;
9807;SDS011;4943;52.550;13.462;2023-06-26T05:51:24;689.67;;;639.53;;
9807;SDS011;4943;52.550;13.462;2023-06-26T05:53:52;686.75;;;636.42;;
9807;SDS011;4943;52.550;13.462;2023-06-26T05:56:21;685.13;;;634.97;;
9807;SDS011;4943;52.550;13.462;2023-06-26T05:58:49;685.10;;;634.75;;
9807;SDS011;4943;52.550;13.462;2023-06-26T06:01:18;675.53;;;625.60;;
9807;SDS011;4943;52.550;13.462;2023-06-26T06:03:48;669.97;;;620.20;;
9807;SDS011;4943;52.550;13.462;2023-06-26T06:06:16;678.70;;;628.83;;
9807;SDS011;4943;52.550;13.462;2023-06-26T06:08:44;672.63;;;622.70;;
9807;SDS011;4943;52.550;13.462;2023-06-26T06:11:15;670.53;;;620.35;;
9807;SDS011;4943;52.550;13.462;2023-06-26T06:13:42;655.65;;;606.45;;
9807;SDS011;4943;52.550;13.462;2023-06-26T06:16:10;658.50;;;609.10;;
9807;SDS011;4943;52.550;13.462;2023-06-26T06:18:38;660.75;;;611.42;;
9807;SDS011;4943;52.550;13.462;2023-06-26T06:21:08;654.92;;;605.33;;
9807;SDS011;4943;52.550;13.462;2023-06-26T06:23:36;660.92;;;611.08;;
9807;SDS011;4943;52.550;13.462;2023-06-26T06:26:05;667.97;;;618.15;;
9807;SDS011;4943;52.550;13.462;2023-06-26T06:28:33;661.97;;;612.40;;
9807;SDS011;4943;52.550;13.462;2023-06-26T06:31:01;660.25;;;610.67;;
9807;SDS011;4943;52.550;13.462;2023-06-26T06:33:29;653.65;;;604.47;;
9807;SDS011;4943;52.550;13.462;2023-06-26T06:35:58;666.30;;;616.63;;
9807;SDS011;4943;52.550;13.462;2023-06-26T06:38:27;667.65;;;617.47;;
9807;SDS011;4943;52.550;13.462;2023-06-26T06:40:55;658.85;;;609.72;;
9807;SDS011;4943;52.550;13.462;2023-06-26T06:43:23;660.92;;;610.08;;
9807;SDS011;4943;52.550;13.462;2023-06-26T06:45:51;662.65;;;613.00;;
9807;SDS011;4943;52.550;13.462;2023-06-26T06:48:19;669.10;;;619.42;;
9807;SDS011;4943;52.550;13.462;2023-06-26T06:50:47;662.78;;;613.40;;
9807;SDS011;4943;52.550;13.462;2023-06-26T06:53:15;654.33;;;605.38;;
9807;SDS011;4943;52.550;13.462;2023-06-26T06:55:44;662.53;;;612.70;;
9807;SDS011;4943;52.550;13.462;2023-06-26T06:58:12;670.35;;;620.30;;
9807;SDS011;4943;52.550;13.462;2023-06-26T07:00:42;661.90;;;612.63;;
9807;SDS011;4943;52.550;13.462;2023-06-26T07:03:10;671.88;;;621.97;;
9807;SDS011;4943;52.550;13.462;2023-06-26T07:05:40;663.15;;;613.88;;
9807;SDS011;4943;52.550;13.462;2023-06-26T07:08:09;669.88;;;619.97;;
9807;SDS011;4943;52.550;13.462;2023-06-26T07:10:37;673.67;;;623.90;;
9807;SDS011;4943;52.550;13.462;2023-06-26T07:13:07;672.40;;;622.97;;
9807;SDS011;4943;52.550;13.462;2023-06-26T07:15:35;671.40;;;621.08;;
9807;SDS011;4943;52.550;13.462;2023-06-26T07:18:03;682.03;;;632.17;;
9807;SDS011;4943;52.550;13.462;2023-06-26T07:20:32;672.95;;;623.60;;
9807;SDS011;4943;52.550;13.462;2023-06-26T07:23:00;682.75;;;632.88;;
9807;SDS011;4943;52.550;13.462;2023-06-26T07:25:28;669.08;;;619.50;;
9807;SDS011;4943;52.550;13.462;2023-06-26T07:27:56;667.05;;;617.78;;
9807;SDS011;4943;52.550;13.462;2023-06-26T07:30:25;691.00;;;641.03;;
9807;SDS011;4943;52.550;13.462;2023-06-26T07:32:54;686.95;;;635.83;;
9807;SDS011;4943;52.550;13.462;2023-06-26T07:35:22;699.47;;;648.60;;
9807;SDS011;4943;52.550;13.462;2023-06-26T07:37:51;685.45;;;635.65;;
9807;SDS011;4943;52.550;13.462;2023-06-26T07:40:19;691.03;;;640.88;;
9807;SDS011;4943;52.550;13.462;2023-06-26T07:42:47;691.80;;;642.03;;
9807;SDS011;4943;52.550;13.462;2023-06-26T07:45:16;705.95;;;655.08;;
9807;SDS011;4943;52.550;13.462;2023-06-26T07:47:45;697.25;;;646.90;;
9807;SDS011;4943;52.550;13.462;2023-06-26T07:50:14;700.47;;;650.00;;
9807;SDS011;4943;52.550;13.462;2023-06-26T07:52:45;694.20;;;643.72;;
9807;SDS011;4943;52.550;13.462;2023-06-26T07:55:13;696.35;;;646.15;;
9807;SDS011;4943;52.550;13.462;2023-06-26T07:57:41;701.95;;;651.70;;
9807;SDS011;4943;52.550;13.462;2023-06-26T08:00:12;704.50;;;654.30;;
9807;SDS011;4943;52.550;13.462;2023-06-26T08:02:40;706.45;;;655.22;;
9807;SDS011;4943;52.550;13.462;2023-06-26T08:05:10;710.38;;;659.67;;
9807;SDS011;4943;52.550;13.462;2023-06-26T08:07:38;719.38;;;668.58;;
9807;SDS011;4943;52.550;13.462;2023-06-26T08:10:06;709.38;;;658.17;;
9807;SDS011;4943;52.550;13.462;2023-06-26T08:12:34;713.47;;;662.90;;
9807;SDS011;4943;52.550;13.462;2023-06-26T08:15:06;722.70;;;671.72;;
9807;SDS011;4943;52.550;13.462;2023-06-26T08:17:35;722.13;;;671.35;;
9807;SDS011;4943;52.550;13.462;2023-06-26T08:20:05;724.50;;;673.42;;
9807;SDS011;4943;52.550;13.462;2023-06-26T08:22:36;737.92;;;686.53;;
9807;SDS011;4943;52.550;13.462;2023-06-26T08:25:04;732.70;;;681.30;;
9807;SDS011;4943;52.550;13.462;2023-06-26T08:27:33;723.65;;;672.47;;
9807;SDS011;4943;52.550;13.462;2023-06-26T08:30:01;723.22;;;672.30;;
9807;SDS011;4943;52.550;13.462;2023-06-26T08:32:31;739.28;;;687.97;;
9807;SDS011;4943;52.550;13.462;2023-06-26T08:34:59;733.45;;;682.22;;
9807;SDS011;4943;52.550;13.462;2023-06-26T08:37:27;749.00;;;697.40;;
9807;SDS011;4943;52.550;13.462;2023-06-26T08:40:00;744.10;;;692.70;;
9807;SDS011;4943;52.550;13.462;2023-06-26T08:42:28;751.03;;;699.42;;
9807;SDS011;4943;52.550;13.462;2023-06-26T08:44:56;761.92;;;709.60;;
9807;SDS011;4943;52.550;13.462;2023-06-26T08:47:27;747.80;;;696.20;;
9807;SDS011;4943;52.550;13.462;2023-06-26T08:50:00;764.85;;;712.53;;
9807;SDS011;4943;52.550;13.462;2023-06-26T08:52:35;758.10;;;705.65;;
9807;SDS011;4943;52.550;13.462;2023-06-26T08:55:09;760.35;;;707.80;;
9807;SDS011;4943;52.550;13.462;2023-06-26T08:57:38;772.92;;;720.10;;
9807;SDS011;4943;52.550;13.462;2023-06-26T09:00:07;783.08;;;730.22;;
9807;SDS011;4943;52.550;13.462;2023-06-26T09:02:36;768.05;;;715.53;;
9807;SDS011;4943;52.550;13.462;2023-06-26T09:05:07;778.88;;;725.95;;
9807;SDS011;4943;52.550;13.462;2023-06-26T09:07:35;766.22;;;713.92;;
9807;SDS011;4943;52.550;13.462;2023-06-26T09:10:04;775.00;;;722.35;;
9807;SDS011;4943;52.550;13.462;2023-06-26T09:12:34;778.60;;;725.50;;
9807;SDS011;4943;52.550;13.462;2023-06-26T09:15:02;830.83;;;775.25;;
9807;SDS011;4943;52.550;13.462;2023-06-26T09:17:33;821.25;;;766.65;;
9807;SDS011;4943;52.550;13.462;2023-06-26T09:20:06;776.25;;;723.67;;
9807;SDS011;4943;52.550;13.462;2023-06-26T09:22:36;837.22;;;783.20;;
9807;SDS011;4943;52.550;13.462;2023-06-26T09:25:06;818.55;;;763.92;;
9807;SDS011;4943;52.550;13.462;2023-06-26T09:27:35;797.70;;;744.05;;
9807;SDS011;4943;52.550;13.462;2023-06-26T09:30:05;778.92;;;726.28;;
9807;SDS011;4943;52.550;13.462;2023-06-26T09:32:34;796.92;;;743.75;;
9807;SDS011;4943;52.550;13.462;2023-06-26T09:35:03;806.97;;;753.50;;
9807;SDS011;4943;52.550;13.462;2023-06-26T09:37:32;789.55;;;736.72;;
9807;SDS011;4943;52.550;13.462;2023-06-26T09:40:01;792.40;;;739.45;;
9807;SDS011;4943;52.550;13.462;2023-06-26T09:42:31;795.40;;;742.22;;
9807;SDS011;4943;52.550;13.462;2023-06-26T09:45:01;800.28;;;746.78;;
9807;SDS011;4943;52.550;13.462;2023-06-26T09:47:30;855.33;;;799.35;;
9807;SDS011;4943;52.550;13.462;2023-06-26T09:49:59;840.85;;;785.50;;
9807;SDS011;4943;52.550;13.462;2023-06-26T09:52:27;842.88;;;787.78;;
9807;SDS011;4943;52.550;13.462;2023-06-26T09:55:07;809.55;;;755.80;;
9807;SDS011;4943;52.550;13.462;2023-06-26T09:57:35;808.05;;;754.20;;
9807;SDS011;4943;52.550;13.462;2023-06-26T10:00:05;810.95;;;757.55;;
9807;SDS011;4943;52.550;13.462;2023-06-26T10:02:36;839.85;;;784.70;;
9807;SDS011;4943;52.550;13.462;2023-06-26T10:05:04;835.33;;;780.65;;
9807;SDS011;4943;52.550;13.462;2023-06-26T10:07:32;806.95;;;753.70;;
9807;SDS011;4943;52.550;13.462;2023-06-26T10:10:02;781.50;;;729.22;;
9807;SDS011;4943;52.550;13.462;2023-06-26T10:12:31;798.00;;;745.33;;
9807;SDS011;4943;52.550;13.462;2023-06-26T10:14:59;833.90;;;779.40;;
9807;SDS011;4943;52.550;13.462;2023-06-26T10:17:32;797.25;;;744.58;;
9807;SDS011;4943;52.550;13.462;2023-06-26T10:20:04;799.78;;;747.03;;
9807;SDS011;4943;52.550;13.462;2023-06-26T10:22:36;791.78;;;739.40;;
9807;SDS011;4943;52.550;13.462;2023-06-26T10:25:09;797.90;;;745.22;;
9807;SDS011;4943;52.550;13.462;2023-06-26T10:27:40;803.78;;;751.10;;
9807;SDS011;4943;52.550;13.462;2023-06-26T10:30:12;793.20;;;741.08;;
9807;SDS011;4943;52.550;13.462;2023-06-26T10:32:44;815.60;;;762.38;;
9807;SDS011;4943;52.550;13.462;2023-06-26T10:35:13;815.15;;;762.05;;
9807;SDS011;4943;52.550;13.462;2023-06-26T10:37:44;823.30;;;769.88;;
9807;SDS011;4943;52.550;13.462;2023-06-26T10:40:13;827.40;;;773.40;;
9807;SDS011;4943;52.550;13.462;2023-06-26T10:42:48;815.47;;;762.28;;
9807;SDS011;4943;52.550;13.462;2023-06-26T10:45:18;846.50;;;791.80;;
9807;SDS011;4943;52.550;13.462;2023-06-26T10:47:52;823.53;;;769.83;;
9807;SDS011;4943;52.550;13.462;2023-06-26T10:50:21;832.03;;;778.17;;
9807;SDS011;4943;52.550;13.462;2023-06-26T10:53:14;824.67;;;771.33;;
9807;SDS011;4943;52.550;13.462;2023-06-26T10:55:48;821.00;;;767.63;;
9807;SDS011;4943;52.550;13.462;2023-06-26T10:58:29;815.33;;;762.22;;
9807;SDS011;4943;52.550;13.462;2023-06-26T11:01:14;847.97;;;793.55;;
9807;SDS011;4943;52.550;13.462;2023-06-26T11:03:47;822.78;;;769.35;;
9807;SDS011;4943;52.550;13.462;2023-06-26T11:06:18;854.83;;;800.38;;
9807;SDS011;4943;52.550;13.462;2023-06-26T11:08:47;816.03;;;762.90;;
9807;SDS011;4943;52.550;13.462;2023-06-26T11:11:16;839.05;;;785.08;;
9807;SDS011;4943;52.550;13.462;2023-06-26T11:13:45;860.40;;;805.47;;
9807;SDS011;4943;52.550;13.462;2023-06-26T11:16:14;843.35;;;788.92;;
9807;SDS011;4943;52.550;13.462;2023-06-26T11:18:42;842.55;;;788.88;;
9807;SDS011;4943;52.550;13.462;2023-06-26T11:21:13;838.63;;;785.03;;
9807;SDS011;4943;52.550;13.462;2023-06-26T11:23:41;827.58;;;774.35;;
9807;SDS011;4943;52.550;13.462;2023-06-26T11:26:13;849.15;;;795.20;;
9807;SDS011;4943;52.550;13.462;2023-06-26T11:28:45;849.13;;;795.30;;
9807;SDS011;4943;52.550;13.462;2023-06-26T11:31:26;845.90;;;792.17;;
9807;SDS011;4943;52.550;13.462;2023-06-26T11:33:56;849.80;;;796.08;;
9807;SDS011;4943;52.550;13.462;2023-06-26T11:36:29;840.63;;;786.97;;
9807;SDS011;4943;52.550;13.462;2023-06-26T11:38:58;854.78;;;800.70;;
9807;SDS011;4943;52.550;13.462;2023-06-26T11:41:30;855.58;;;801.50;;
9807;SDS011;4943;52.550;13.462;2023-06-26T11:44:00;894.08;;;838.10;;
9807;SDS011;4943;52.550;13.462;2023-06-26T11:46:31;884.67;;;829.33;;
9807;SDS011;4943;52.550;13.462;2023-06-26T11:48:59;899.20;;;843.08;;
9807;SDS011;4943;52.550;13.462;2023-06-26T11:51:31;903.92;;;847.58;;
9807;SDS011;4943;52.550;13.462;2023-06-26T11:54:00;897.17;;;841.25;;
9807;SDS011;4943;52.550;13.462;2023-06-26T11:56:30;894.28;;;838.28;;
9807;SDS011;4943;52.550;13.462;2023-06-26T11:58:59;874.75;;;819.97;;
9807;SDS011;4943;52.550;13.462;2023-06-26T12:01:32;886.58;;;831.17;;
9807;SDS011;4943;52.550;13.462;2023-06-26T12:04:02;940.05;;;881.90;;
9807;SDS011;4943;52.550;13.462;2023-06-26T12:06:33;887.85;;;832.50;;
9807;SDS011;4943;52.550;13.462;2023-06-26T12:09:05;896.92;;;840.50;;
9807;SDS011;4943;52.550;13.462;2023-06-26T12:11:36;890.88;;;835.45;;
9807;SDS011;4943;52.550;13.462;2023-06-26T12:14:06;890.50;;;835.28;;
9807;SDS011;4943;52.550;13.462;2023-06-26T12:16:35;898.80;;;843.22;;
9807;SDS011;4943;52.550;13.462;2023-06-26T12:19:04;884.70;;;829.63;;
9807;SDS011;4943;52.550;13.462;2023-06-26T12:21:45;894.45;;;839.00;;
9807;SDS011;4943;52.550;13.462;2023-06-26T12:24:15;898.78;;;843.17;;
9807;SDS011;4943;52.550;13.462;2023-06-26T12:26:45;912.60;;;856.17;;
9807;SDS011;4943;52.550;13.462;2023-06-26T12:29:14;899.95;;;844.08;;
9807;SDS011;4943;52.550;13.462;2023-06-26T12:31:46;898.05;;;842.08;;
9807;SDS011;4943;52.550;13.462;2023-06-26T12:34:18;904.70;;;848.33;;
9807;SDS011;4943;52.550;13.462;2023-06-26T12:36:49;907.22;;;851.00;;
9807;SDS011;4943;52.550;13.462;2023-06-26T12:39:18;900.88;;;844.72;;
9807;SDS011;4943;52.550;13.462;2023-06-26T12:41:48;905.47;;;849.20;;
9807;SDS011;4943;52.550;13.462;2023-06-26T12:44:19;953.28;;;894.13;;
9807;SDS011;4943;52.550;13.462;2023-06-26T12:46:49;948.00;;;889.47;;
9807;SDS011;4943;52.550;13.462;2023-06-26T12:49:20;917.20;;;860.55;;
9807;SDS011;4943;52.550;13.462;2023-06-26T12:51:59;908.20;;;852.08;;
9807;SDS011;4943;52.550;13.462;2023-06-26T12:54:28;907.40;;;850.75;;
9807;SDS011;4943;52.550;13.462;2023-06-26T12:56:56;916.08;;;858.65;;
9807;SDS011;4943;52.550;13.462;2023-06-26T12:59:24;919.60;;;862.47;;
9807;SDS011;4943;52.550;13.462;2023-06-26T13:01:52;949.92;;;891.78;;
9807;SDS011;4943;52.550;13.462;2023-06-26T13:04:20;924.38;;;867.50;;
9807;SDS011;4943;52.550;13.462;2023-06-26T13:06:48;924.45;;;867.63;;
9807;SDS011;4943;52.550;13.462;2023-06-26T13:09:19;963.08;;;904.10;;
9807;SDS011;4943;52.550;13.462;2023-06-26T13:11:47;933.35;;;876.20;;
9807;SDS011;4943;52.550;13.462;2023-06-26T13:14:15;929.42;;;872.50;;
9807;SDS011;4943;52.550;13.462;2023-06-26T13:16:43;980.85;;;920.63;;
9807;SDS011;4943;52.550;13.462;2023-06-26T13:19:11;967.10;;;907.47;;
9807;SDS011;4943;52.550;13.462;2023-06-26T13:21:39;946.25;;;888.10;;
9807;SDS011;4943;52.550;13.462;2023-06-26T13:24:08;951.40;;;892.75;;
9807;SDS011;4943;52.550;13.462;2023-06-26T13:26:38;928.47;;;871.25;;
9807;SDS011;4943;52.550;13.462;2023-06-26T13:29:06;905.10;;;849.03;;
9807;SDS011;4943;52.550;13.462;2023-06-26T13:31:34;934.00;;;876.65;;
9807;SDS011;4943;52.550;13.462;2023-06-26T13:34:03;930.50;;;872.65;;
9807;SDS011;4943;52.550;13.462;2023-06-26T13:36:31;942.92;;;884.85;;
9807;SDS011;4943;52.550;13.462;2023-06-26T13:39:01;922.05;;;864.65;;
9807;SDS011;4943;52.550;13.462;2023-06-26T13:41:29;927.58;;;869.40;;
9807;SDS011;4943;52.550;13.462;2023-06-26T13:43:59;914.08;;;857.15;;
9807;SDS011;4943;52.550;13.462;2023-06-26T13:46:43;903.50;;;846.83;;
9807;SDS011;4943;52.550;13.462;2023-06-26T13:49:11;911.83;;;854.85;;
9807;SDS011;4943;52.550;13.462;2023-06-26T13:51:39;904.53;;;847.83;;
9807;SDS011;4943;52.550;13.462;2023-06-26T13:54:13;911.25;;;854.08;;
9807;SDS011;4943;52.550;13.462;2023-06-26T13:56:41;915.17;;;858.10;;
9807;SDS011;4943;52.550;13.462;2023-06-26T13:59:10;904.75;;;848.05;;
9807;SDS011;4943;52.550;13.462;2023-06-26T14:01:39;930.33;;;872.22;;
9807;SDS011;4943;52.550;13.462;2023-06-26T14:04:09;924.38;;;866.08;;
9807;SDS011;4943;52.550;13.462;2023-06-26T14:06:37;905.03;;;847.58;;
9807;SDS011;4943;52.550;13.462;2023-06-26T14:09:05;906.58;;;849.42;;
9807;SDS011;4943;52.550;13.462;2023-06-26T14:11:33;915.08;;;857.53;;
9807;SDS011;4943;52.550;13.462;2023-06-26T14:14:02;900.25;;;843.10;;
9807;SDS011;4943;52.550;13.462;2023-06-26T14:16:32;894.42;;;837.80;;
9807;SDS011;4943;52.550;13.462;2023-06-26T14:19:00;885.53;;;829.10;;
9807;SDS011;4943;52.550;13.462;2023-06-26T14:21:29;882.60;;;826.47;;